Felker Army Air Field Fort Eustis US
ICAO: KFAF
IATA: FAF
Category: Medium
Scheduled Services: No

Elevation: 12 ft
TransAlt. 18000 ft.

Airport Communications:
NORFOLK APP/DEP:125.7
CTAF:126.3
GND:121.35
BASE OPS:134.1
PMSV METRO:134.1
TWR:126.3

KFAF Zoom In..

Runways:

(A) RW 14 length 3025 ft width 75 ft
---- / hdg 139

(B) RW 32 length 3025 ft width 75 ft
---- / hdg 319

Location; KFAF
Day. 20 / Time. 19.56 Zulu
* Altimeter: 30.03
* Temperature: 30° c. 86°f.
* Wind from: 130° Speed 08 kn.
Dewpoint: 15° c.
Visibility: 10 Statute Miles.
Clouds: Clear (automated report).

KFAF 201956Z 13008KT 10SM CLR 30/15 A3003 RMK SLP172 T02970146 57016 $


Wind From 130°
Speed 08 kn.

 
 
jpsmedia.com for Web Design worldairports.se 2018   terms of use